sensor_id;sensor_type;location;lat;lon;timestamp;pressure;altitude;pressure_sealevel;temperature;humidity
48244;BME280;34053;51.088;6.572;2023-06-10T00:00:54;100776.19;;;24.67;42.40
48244;BME280;34053;51.088;6.572;2023-06-10T00:03:46;100772.03;;;24.63;42.29
48244;BME280;34053;51.088;6.572;2023-06-10T00:06:37;100779.50;;;24.60;42.67
48244;BME280;34053;51.088;6.572;2023-06-10T00:09:28;100768.31;;;24.55;42.27
48244;BME280;34053;51.088;6.572;2023-06-10T00:12:19;100777.34;;;24.54;42.47
48244;BME280;34053;51.088;6.572;2023-06-10T00:15:10;100774.34;;;24.47;42.43
48244;BME280;34053;51.088;6.572;2023-06-10T00:18:02;100773.75;;;24.43;42.51
48244;BME280;34053;51.088;6.572;2023-06-10T00:20:54;100779.38;;;24.40;42.55
48244;BME280;34053;51.088;6.572;2023-06-10T00:23:45;100778.66;;;24.38;42.71
48244;BME280;34053;51.088;6.572;2023-06-10T00:26:36;100780.91;;;24.33;42.79
48244;BME280;34053;51.088;6.572;2023-06-10T00:29:27;100784.81;;;24.29;42.80
48244;BME280;34053;51.088;6.572;2023-06-10T00:32:17;100781.97;;;24.30;43.13
48244;BME280;34053;51.088;6.572;2023-06-10T00:35:08;100784.06;;;24.27;43.04
48244;BME280;34053;51.088;6.572;2023-06-10T00:37:59;100788.97;;;24.22;43.45
48244;BME280;34053;51.088;6.572;2023-06-10T00:40:50;100784.59;;;24.20;43.36
48244;BME280;34053;51.088;6.572;2023-06-10T00:43:41;100788.63;;;24.15;43.41
48244;BME280;34053;51.088;6.572;2023-06-10T00:46:32;100786.09;;;24.13;43.35
48244;BME280;34053;51.088;6.572;2023-06-10T00:49:24;100791.69;;;24.10;43.52
48244;BME280;34053;51.088;6.572;2023-06-10T00:52:16;100787.44;;;24.08;43.83
48244;BME280;34053;51.088;6.572;2023-06-10T00:55:07;100791.50;;;24.02;43.52
48244;BME280;34053;51.088;6.572;2023-06-10T00:57:58;100792.13;;;23.94;43.66
48244;BME280;34053;51.088;6.572;2023-06-10T01:00:50;100789.53;;;23.93;43.77
48244;BME280;34053;51.088;6.572;2023-06-10T01:03:41;100790.03;;;23.86;43.92
48244;BME280;34053;51.088;6.572;2023-06-10T01:15:46;100787.06;;;23.68;44.16
48244;BME280;34053;51.088;6.572;2023-06-10T01:18:37;100785.59;;;23.64;44.17
48244;BME280;34053;51.088;6.572;2023-06-10T01:21:29;100788.53;;;23.61;44.63
48244;BME280;34053;51.088;6.572;2023-06-10T01:24:21;100785.25;;;23.57;44.70
48244;BME280;34053;51.088;6.572;2023-06-10T01:27:15;100791.84;;;23.53;44.70
48244;BME280;34053;51.088;6.572;2023-06-10T01:30:15;100789.53;;;23.49;44.62
48244;BME280;34053;51.088;6.572;2023-06-10T01:33:09;100784.53;;;23.44;44.99
48244;BME280;34053;51.088;6.572;2023-06-10T01:36:02;100788.19;;;23.43;45.18
48244;BME280;34053;51.088;6.572;2023-06-10T01:38:56;100792.09;;;23.39;45.01
48244;BME280;34053;51.088;6.572;2023-06-10T01:41:48;100787.94;;;23.35;44.70
48244;BME280;34053;51.088;6.572;2023-06-10T01:44:40;100797.09;;;23.32;45.44
48244;BME280;34053;51.088;6.572;2023-06-10T01:47:30;100790.66;;;23.23;44.75
48244;BME280;34053;51.088;6.572;2023-06-10T01:50:22;100791.63;;;23.22;45.24
48244;BME280;34053;51.088;6.572;2023-06-10T01:53:13;100792.81;;;23.18;45.45
48244;BME280;34053;51.088;6.572;2023-06-10T01:56:04;100790.38;;;23.15;45.44
48244;BME280;34053;51.088;6.572;2023-06-10T01:58:54;100802.91;;;23.03;45.58
48244;BME280;34053;51.088;6.572;2023-06-10T02:01:49;100804.00;;;23.01;45.18
48244;BME280;34053;51.088;6.572;2023-06-10T02:04:40;100808.97;;;22.94;45.23
48244;BME280;34053;51.088;6.572;2023-06-10T02:07:31;100807.13;;;22.94;45.87
48244;BME280;34053;51.088;6.572;2023-06-10T02:10:21;100807.88;;;22.97;46.09
48244;BME280;34053;51.088;6.572;2023-06-10T02:13:12;100808.09;;;22.93;45.73
48244;BME280;34053;51.088;6.572;2023-06-10T02:16:03;100808.59;;;22.87;46.07
48244;BME280;34053;51.088;6.572;2023-06-10T02:18:54;100806.19;;;22.84;45.83
48244;BME280;34053;51.088;6.572;2023-06-10T02:21:45;100809.09;;;22.81;46.23
48244;BME280;34053;51.088;6.572;2023-06-10T02:24:39;100803.13;;;22.77;46.53
48244;BME280;34053;51.088;6.572;2023-06-10T02:27:30;100812.34;;;22.73;46.24
48244;BME280;34053;51.088;6.572;2023-06-10T02:30:21;100813.78;;;22.66;46.58
48244;BME280;34053;51.088;6.572;2023-06-10T02:33:12;100812.06;;;22.65;46.48
48244;BME280;34053;51.088;6.572;2023-06-10T02:36:03;100809.75;;;22.60;46.67
48244;BME280;34053;51.088;6.572;2023-06-10T02:38:54;100816.44;;;22.55;46.90
48244;BME280;34053;51.088;6.572;2023-06-10T02:41:45;100815.94;;;22.50;46.68
48244;BME280;34053;51.088;6.572;2023-06-10T02:44:35;100819.56;;;22.48;47.18
48244;BME280;34053;51.088;6.572;2023-06-10T02:47:26;100818.94;;;22.45;46.96
48244;BME280;34053;51.088;6.572;2023-06-10T02:50:17;100816.72;;;22.39;46.75
48244;BME280;34053;51.088;6.572;2023-06-10T02:53:08;100819.84;;;22.32;46.82
48244;BME280;34053;51.088;6.572;2023-06-10T02:55:59;100829.31;;;22.25;46.95
48244;BME280;34053;51.088;6.572;2023-06-10T02:58:50;100827.81;;;22.21;47.04
48244;BME280;34053;51.088;6.572;2023-06-10T03:01:42;100826.44;;;22.15;46.87
48244;BME280;34053;51.088;6.572;2023-06-10T03:04:33;100827.66;;;22.11;47.07
48244;BME280;34053;51.088;6.572;2023-06-10T03:07:24;100825.31;;;22.07;47.33
48244;BME280;34053;51.088;6.572;2023-06-10T03:10:14;100821.16;;;22.02;46.90
48244;BME280;34053;51.088;6.572;2023-06-10T03:13:05;100824.09;;;21.99;46.95
48244;BME280;34053;51.088;6.572;2023-06-10T03:15:56;100824.28;;;21.96;47.54
48244;BME280;34053;51.088;6.572;2023-06-10T03:18:48;100822.28;;;21.87;47.64
48244;BME280;34053;51.088;6.572;2023-06-10T03:21:39;100818.56;;;21.90;47.98
48244;BME280;34053;51.088;6.572;2023-06-10T03:24:32;100819.41;;;21.90;48.33
48244;BME280;34053;51.088;6.572;2023-06-10T03:27:23;100824.00;;;21.88;47.87
48244;BME280;34053;51.088;6.572;2023-06-10T03:30:13;100827.13;;;21.82;47.99
48244;BME280;34053;51.088;6.572;2023-06-10T03:33:05;100838.66;;;21.82;48.25
48244;BME280;34053;51.088;6.572;2023-06-10T03:35:55;100836.56;;;21.75;48.34
48244;BME280;34053;51.088;6.572;2023-06-10T03:38:46;100835.81;;;21.73;48.34
48244;BME280;34053;51.088;6.572;2023-06-10T03:41:37;100841.28;;;21.71;48.35
48244;BME280;34053;51.088;6.572;2023-06-10T03:44:28;100833.91;;;21.62;48.61
48244;BME280;34053;51.088;6.572;2023-06-10T03:47:19;100844.59;;;21.62;48.59
48244;BME280;34053;51.088;6.572;2023-06-10T03:50:10;100842.91;;;21.61;48.65
48244;BME280;34053;51.088;6.572;2023-06-10T03:53:00;100845.84;;;21.56;48.36
48244;BME280;34053;51.088;6.572;2023-06-10T03:55:51;100842.44;;;21.54;48.94
48244;BME280;34053;51.088;6.572;2023-06-10T03:58:42;100837.53;;;21.48;48.29
48244;BME280;34053;51.088;6.572;2023-06-10T04:01:33;100840.22;;;21.48;49.08
48244;BME280;34053;51.088;6.572;2023-06-10T04:04:25;100841.41;;;21.44;48.73
48244;BME280;34053;51.088;6.572;2023-06-10T04:07:15;100842.38;;;21.43;49.19
48244;BME280;34053;51.088;6.572;2023-06-10T04:10:07;100855.91;;;21.39;49.29
48244;BME280;34053;51.088;6.572;2023-06-10T04:12:58;100850.78;;;21.36;49.54
48244;BME280;34053;51.088;6.572;2023-06-10T04:15:49;100850.06;;;21.34;49.26
48244;BME280;34053;51.088;6.572;2023-06-10T04:18:39;100845.69;;;21.33;49.35
48244;BME280;34053;51.088;6.572;2023-06-10T04:21:30;100855.59;;;21.31;49.63
48244;BME280;34053;51.088;6.572;2023-06-10T04:24:21;100860.19;;;21.29;49.86
48244;BME280;34053;51.088;6.572;2023-06-10T04:27:12;100852.44;;;21.26;50.32
48244;BME280;34053;51.088;6.572;2023-06-10T04:30:03;100864.16;;;21.23;49.30
48244;BME280;34053;51.088;6.572;2023-06-10T04:32:54;100862.47;;;21.22;49.95
48244;BME280;34053;51.088;6.572;2023-06-10T04:35:45;100865.97;;;21.23;50.39
48244;BME280;34053;51.088;6.572;2023-06-10T04:38:38;100866.94;;;21.22;50.35
48244;BME280;34053;51.088;6.572;2023-06-10T04:41:28;100860.84;;;21.20;49.97
48244;BME280;34053;51.088;6.572;2023-06-10T04:44:19;100866.28;;;21.18;50.24
48244;BME280;34053;51.088;6.572;2023-06-10T04:47:10;100857.22;;;21.21;50.30
48244;BME280;34053;51.088;6.572;2023-06-10T04:50:01;100860.84;;;21.20;50.54
48244;BME280;34053;51.088;6.572;2023-06-10T04:52:52;100866.41;;;21.17;50.19
48244;BME280;34053;51.088;6.572;2023-06-10T04:55:43;100856.50;;;21.19;50.55
48244;BME280;34053;51.088;6.572;2023-06-10T04:58:34;100856.69;;;21.16;50.49
48244;BME280;34053;51.088;6.572;2023-06-10T05:01:25;100863.41;;;21.09;50.72
48244;BME280;34053;51.088;6.572;2023-06-10T05:04:16;100861.38;;;21.12;50.50
48244;BME280;34053;51.088;6.572;2023-06-10T05:07:07;100854.22;;;21.13;50.58
48244;BME280;34053;51.088;6.572;2023-06-10T05:09:58;100860.19;;;21.16;50.95
48244;BME280;34053;51.088;6.572;2023-06-10T05:12:51;100853.50;;;21.11;50.96
48244;BME280;34053;51.088;6.572;2023-06-10T05:15:42;100857.97;;;21.10;51.01
48244;BME280;34053;51.088;6.572;2023-06-10T05:18:35;100874.09;;;21.09;51.91
48244;BME280;34053;51.088;6.572;2023-06-10T05:21:26;100870.34;;;20.98;51.84
48244;BME280;34053;51.088;6.572;2023-06-10T05:24:16;100864.38;;;21.07;51.10
48244;BME280;34053;51.088;6.572;2023-06-10T05:27:07;100863.53;;;21.07;51.57
48244;BME280;34053;51.088;6.572;2023-06-10T05:29:59;100864.81;;;21.14;52.07
48244;BME280;34053;51.088;6.572;2023-06-10T05:32:50;100865.66;;;21.15;51.82
48244;BME280;34053;51.088;6.572;2023-06-10T05:35:41;100871.19;;;21.12;51.32
48244;BME280;34053;51.088;6.572;2023-06-10T05:38:32;100861.19;;;21.15;52.83
48244;BME280;34053;51.088;6.572;2023-06-10T05:41:23;100865.66;;;21.15;52.20
48244;BME280;34053;51.088;6.572;2023-06-10T05:44:14;100863.84;;;21.15;52.20
48244;BME280;34053;51.088;6.572;2023-06-10T05:47:05;100872.25;;;21.09;53.15
48244;BME280;34053;51.088;6.572;2023-06-10T05:49:56;100876.31;;;21.15;52.32
48244;BME280;34053;51.088;6.572;2023-06-10T05:52:46;100870.78;;;21.18;51.98
48244;BME280;34053;51.088;6.572;2023-06-10T05:55:37;100874.19;;;21.07;54.40
48244;BME280;34053;51.088;6.572;2023-06-10T05:58:28;100875.88;;;21.21;52.79
48244;BME280;34053;51.088;6.572;2023-06-10T06:01:19;100870.56;;;21.21;53.49
48244;BME280;34053;51.088;6.572;2023-06-10T06:04:10;100875.16;;;21.19;54.42
48244;BME280;34053;51.088;6.572;2023-06-10T06:07:01;100870.56;;;21.21;54.53
48244;BME280;34053;51.088;6.572;2023-06-10T06:09:51;100877.16;;;21.28;53.05
48244;BME280;34053;51.088;6.572;2023-06-10T06:12:42;100873.22;;;21.34;52.86
48244;BME280;34053;51.088;6.572;2023-06-10T06:15:33;100871.19;;;21.37;52.33
48244;BME280;34053;51.088;6.572;2023-06-10T06:18:24;100871.19;;;21.37;52.92
48244;BME280;34053;51.088;6.572;2023-06-10T06:21:15;100870.22;;;21.38;55.13
48244;BME280;34053;51.088;6.572;2023-06-10T06:24:06;100879.50;;;21.46;53.73
48244;BME280;34053;51.088;6.572;2023-06-10T06:26:57;100877.91;;;21.56;53.29
48244;BME280;34053;51.088;6.572;2023-06-10T06:29:47;100879.50;;;21.46;54.22
48244;BME280;34053;51.088;6.572;2023-06-10T06:32:38;100879.59;;;21.57;52.57
48244;BME280;34053;51.088;6.572;2023-06-10T06:35:35;100884.78;;;21.60;54.22
48244;BME280;34053;51.088;6.572;2023-06-10T06:38:26;100880.47;;;21.58;53.51
48244;BME280;34053;51.088;6.572;2023-06-10T06:41:17;100880.69;;;21.67;53.66
48244;BME280;34053;51.088;6.572;2023-06-10T06:44:07;100879.94;;;21.65;53.19
48244;BME280;34053;51.088;6.572;2023-06-10T06:46:58;100887.63;;;21.70;53.52
48244;BME280;34053;51.088;6.572;2023-06-10T06:49:49;100878.63;;;21.84;53.01
48244;BME280;34053;51.088;6.572;2023-06-10T06:52:40;100886.84;;;21.81;54.56
48244;BME280;34053;51.088;6.572;2023-06-10T06:55:31;100885.13;;;21.80;53.09
48244;BME280;34053;51.088;6.572;2023-06-10T06:58:21;100886.72;;;21.82;53.34
48244;BME280;34053;51.088;6.572;2023-06-10T07:01:12;100890.78;;;21.88;53.91
48244;BME280;34053;51.088;6.572;2023-06-10T07:04:03;100898.13;;;21.97;52.65
48244;BME280;34053;51.088;6.572;2023-06-10T07:06:54;100894.63;;;21.97;51.98
48244;BME280;34053;51.088;6.572;2023-06-10T07:09:44;100892.00;;;22.08;52.37
48244;BME280;34053;51.088;6.572;2023-06-10T07:12:35;100894.25;;;22.14;52.34
48244;BME280;34053;51.088;6.572;2023-06-10T07:15:26;100901.50;;;22.12;51.63
48244;BME280;34053;51.088;6.572;2023-06-10T07:18:17;100901.06;;;22.19;52.25
48244;BME280;34053;51.088;6.572;2023-06-10T07:21:08;100897.75;;;22.15;50.91
48244;BME280;34053;51.088;6.572;2023-06-10T07:23:58;100898.25;;;22.20;50.96
48244;BME280;34053;51.088;6.572;2023-06-10T07:26:50;100901.22;;;22.28;50.14
48244;BME280;34053;51.088;6.572;2023-06-10T07:29:41;100890.19;;;22.33;51.09
48244;BME280;34053;51.088;6.572;2023-06-10T07:32:31;100900.50;;;22.26;51.21
48244;BME280;34053;51.088;6.572;2023-06-10T07:35:22;100897.38;;;22.32;50.69
48244;BME280;34053;51.088;6.572;2023-06-10T07:38:14;100897.44;;;22.44;50.24
48244;BME280;34053;51.088;6.572;2023-06-10T07:41:07;100891.88;;;22.47;50.19
48244;BME280;34053;51.088;6.572;2023-06-10T07:44:21;100898.09;;;22.47;49.97
48244;BME280;34053;51.088;6.572;2023-06-10T07:47:42;100892.66;;;22.60;49.97
48244;BME280;34053;51.088;6.572;2023-06-10T07:50:38;100897.44;;;22.68;49.31
48244;BME280;34053;51.088;6.572;2023-06-10T07:53:29;100897.09;;;22.73;49.31
48244;BME280;34053;51.088;6.572;2023-06-10T07:56:23;100895.44;;;22.59;48.96
48244;BME280;34053;51.088;6.572;2023-06-10T07:59:35;100896.34;;;22.71;49.74
48244;BME280;34053;51.088;6.572;2023-06-10T08:02:26;100896.13;;;22.74;49.52
48244;BME280;34053;51.088;6.572;2023-06-10T08:05:17;100892.75;;;22.83;49.05
48244;BME280;34053;51.088;6.572;2023-06-10T08:08:08;100892.88;;;22.93;48.33
48244;BME280;34053;51.088;6.572;2023-06-10T08:10:58;100887.53;;;22.93;48.45
48244;BME280;34053;51.088;6.572;2023-06-10T08:13:49;100891.56;;;22.99;48.51
48244;BME280;34053;51.088;6.572;2023-06-10T08:16:40;100894.25;;;23.10;48.50
48244;BME280;34053;51.088;6.572;2023-06-10T08:19:31;100897.44;;;23.15;48.15
48244;BME280;34053;51.088;6.572;2023-06-10T08:22:21;100888.66;;;23.13;48.84
48244;BME280;34053;51.088;6.572;2023-06-10T08:25:12;100900.88;;;23.29;47.59
48244;BME280;34053;51.088;6.572;2023-06-10T08:28:03;100897.97;;;23.32;47.94
48244;BME280;34053;51.088;6.572;2023-06-10T08:30:54;100896.75;;;23.36;47.91
48244;BME280;34053;51.088;6.572;2023-06-10T08:33:44;100894.56;;;23.41;48.24
48244;BME280;34053;51.088;6.572;2023-06-10T08:36:35;100897.47;;;23.61;46.51
48244;BME280;34053;51.088;6.572;2023-06-10T08:39:26;100899.06;;;23.52;46.71
48244;BME280;34053;51.088;6.572;2023-06-10T08:42:43;100898.44;;;23.60;47.08
48244;BME280;34053;51.088;6.572;2023-06-10T08:45:48;100897.00;;;23.67;46.57
48244;BME280;34053;51.088;6.572;2023-06-10T08:48:42;100890.06;;;23.76;45.61
48244;BME280;34053;51.088;6.572;2023-06-10T08:51:35;100898.59;;;23.69;46.65
48244;BME280;34053;51.088;6.572;2023-06-10T08:54:30;100895.53;;;23.74;46.60
48244;BME280;34053;51.088;6.572;2023-06-10T08:57:22;100891.53;;;23.80;46.86
48244;BME280;34053;51.088;6.572;2023-06-10T09:00:13;100898.22;;;23.97;45.98
48244;BME280;34053;51.088;6.572;2023-06-10T09:03:06;100889.19;;;23.98;46.20
48244;BME280;34053;51.088;6.572;2023-06-10T09:05:59;100882.13;;;24.08;45.52
48244;BME280;34053;51.088;6.572;2023-06-10T09:08:50;100882.44;;;24.15;45.94
48244;BME280;34053;51.088;6.572;2023-06-10T09:11:44;100891.47;;;24.14;45.96
48244;BME280;34053;51.088;6.572;2023-06-10T09:14:35;100880.13;;;24.22;46.67
48244;BME280;34053;51.088;6.572;2023-06-10T09:17:27;100883.59;;;24.45;44.91
48244;BME280;34053;51.088;6.572;2023-06-10T09:20:18;100882.84;;;24.43;45.38
48244;BME280;34053;51.088;6.572;2023-06-10T09:23:09;100879.31;;;24.42;44.91
48244;BME280;34053;51.088;6.572;2023-06-10T09:26:00;100885.75;;;24.51;44.78
48244;BME280;34053;51.088;6.572;2023-06-10T09:28:51;100873.38;;;24.60;45.03
48244;BME280;34053;51.088;6.572;2023-06-10T09:31:43;100882.34;;;24.81;44.49
48244;BME280;34053;51.088;6.572;2023-06-10T09:34:36;100878.53;;;24.84;44.58
48244;BME280;34053;51.088;6.572;2023-06-10T09:37:27;100882.53;;;24.90;43.98
48244;BME280;34053;51.088;6.572;2023-06-10T09:40:17;100884.03;;;24.82;44.38
48244;BME280;34053;51.088;6.572;2023-06-10T09:43:08;100882.72;;;24.98;44.20
48244;BME280;34053;51.088;6.572;2023-06-10T09:46:02;100879.44;;;25.16;42.50
48244;BME280;34053;51.088;6.572;2023-06-10T09:48:52;100878.78;;;25.02;43.68
48244;BME280;34053;51.088;6.572;2023-06-10T09:51:54;100873.75;;;25.09;43.85
48244;BME280;34053;51.088;6.572;2023-06-10T09:54:45;100873.59;;;25.10;44.54
48244;BME280;34053;51.088;6.572;2023-06-10T09:57:36;100865.00;;;25.17;42.74
48244;BME280;34053;51.088;6.572;2023-06-10T10:00:32;100870.31;;;25.28;43.51
48244;BME280;34053;51.088;6.572;2023-06-10T10:03:22;100866.25;;;25.34;42.65
48244;BME280;34053;51.088;6.572;2023-06-10T10:06:15;100867.88;;;25.25;42.31
48244;BME280;34053;51.088;6.572;2023-06-10T10:09:06;100865.06;;;25.48;42.55
48244;BME280;34053;51.088;6.572;2023-06-10T10:11:57;100868.09;;;25.64;41.95
48244;BME280;34053;51.088;6.572;2023-06-10T10:14:51;100865.81;;;25.59;42.77
48244;BME280;34053;51.088;6.572;2023-06-10T10:17:49;100867.50;;;25.60;42.20
48244;BME280;34053;51.088;6.572;2023-06-10T10:20:47;100865.41;;;25.74;42.36
48244;BME280;34053;51.088;6.572;2023-06-10T10:23:53;100862.91;;;25.92;41.73
48244;BME280;34053;51.088;6.572;2023-06-10T10:26:50;100861.91;;;25.83;42.19
48244;BME280;34053;51.088;6.572;2023-06-10T10:29:45;100862.66;;;25.95;41.31
48244;BME280;34053;51.088;6.572;2023-06-10T10:33:02;100854.91;;;26.12;41.61
48244;BME280;34053;51.088;6.572;2023-06-10T10:35:56;100859.13;;;26.04;41.72
48244;BME280;34053;51.088;6.572;2023-06-10T10:38:48;100850.25;;;26.14;40.69
48244;BME280;34053;51.088;6.572;2023-06-10T10:41:40;100852.94;;;26.14;42.11
48244;BME280;34053;51.088;6.572;2023-06-10T10:44:32;100848.84;;;26.29;42.81
48244;BME280;34053;51.088;6.572;2023-06-10T10:47:27;100846.00;;;26.40;42.60
48244;BME280;34053;51.088;6.572;2023-06-10T10:50:20;100842.47;;;26.40;43.18
48244;BME280;34053;51.088;6.572;2023-06-10T10:53:11;100845.56;;;26.65;40.30
48244;BME280;34053;51.088;6.572;2023-06-10T10:56:15;100841.31;;;26.62;41.62
48244;BME280;34053;51.088;6.572;2023-06-10T10:59:07;100835.88;;;27.01;39.86
48244;BME280;34053;51.088;6.572;2023-06-10T11:01:58;100829.53;;;26.93;40.97
48244;BME280;34053;51.088;6.572;2023-06-10T11:04:49;100834.50;;;26.97;41.23
48244;BME280;34053;51.088;6.572;2023-06-10T11:07:40;100826.09;;;27.00;39.76
48244;BME280;34053;51.088;6.572;2023-06-10T11:10:33;100827.09;;;26.99;41.48
48244;BME280;34053;51.088;6.572;2023-06-10T11:13:26;100820.38;;;27.13;40.99
48244;BME280;34053;51.088;6.572;2023-06-10T11:16:19;100818.78;;;27.30;41.32
48244;BME280;34053;51.088;6.572;2023-06-10T11:19:33;100823.56;;;27.37;40.80
48244;BME280;34053;51.088;6.572;2023-06-10T11:22:28;100816.84;;;27.41;39.18
48244;BME280;34053;51.088;6.572;2023-06-10T11:25:38;100821.34;;;27.22;40.05
48244;BME280;34053;51.088;6.572;2023-06-10T11:28:29;100814.94;;;27.33;40.16
48244;BME280;34053;51.088;6.572;2023-06-10T11:31:25;100814.50;;;27.28;38.72
48244;BME280;34053;51.088;6.572;2023-06-10T11:34:22;100819.88;;;27.28;39.92
48244;BME280;34053;51.088;6.572;2023-06-10T11:37:14;100811.97;;;27.26;39.23
48244;BME280;34053;51.088;6.572;2023-06-10T11:40:06;100819.34;;;27.24;38.30
48244;BME280;34053;51.088;6.572;2023-06-10T11:42:57;100809.72;;;27.22;39.59
48244;BME280;34053;51.088;6.572;2023-06-10T11:45:54;100810.31;;;27.15;39.21
48244;BME280;34053;51.088;6.572;2023-06-10T11:48:52;100813.47;;;27.11;40.27
48244;BME280;34053;51.088;6.572;2023-06-10T11:51:44;100812.56;;;27.20;39.85
48244;BME280;34053;51.088;6.572;2023-06-10T11:54:39;100812.41;;;27.22;40.19
48244;BME280;34053;51.088;6.572;2023-06-10T11:57:34;100807.84;;;27.32;39.57
48244;BME280;34053;51.088;6.572;2023-06-10T12:00:25;100802.63;;;27.21;38.56
48244;BME280;34053;51.088;6.572;2023-06-10T12:03:16;100809.63;;;27.13;40.26
48244;BME280;34053;51.088;6.572;2023-06-10T12:06:07;100806.75;;;27.15;39.65
48244;BME280;34053;51.088;6.572;2023-06-10T12:08:58;100800.81;;;27.21;40.61
48244;BME280;34053;51.088;6.572;2023-06-10T12:11:58;100800.25;;;27.17;40.49
48244;BME280;34053;51.088;6.572;2023-06-10T12:15:00;100793.75;;;27.38;39.51
48244;BME280;34053;51.088;6.572;2023-06-10T12:17:53;100794.31;;;27.42;39.45
48244;BME280;34053;51.088;6.572;2023-06-10T12:20:44;100797.50;;;27.83;37.75
48244;BME280;34053;51.088;6.572;2023-06-10T12:23:35;100786.88;;;27.82;38.85
48244;BME280;34053;51.088;6.572;2023-06-10T12:26:43;100785.72;;;27.84;38.70
48244;BME280;34053;51.088;6.572;2023-06-10T12:29:40;100783.63;;;27.96;36.24
48244;BME280;34053;51.088;6.572;2023-06-10T12:32:42;100779.88;;;28.07;36.43
48244;BME280;34053;51.088;6.572;2023-06-10T12:35:34;100781.66;;;28.16;35.44
48244;BME280;34053;51.088;6.572;2023-06-10T12:38:25;100779.94;;;28.15;37.58
48244;BME280;34053;51.088;6.572;2023-06-10T12:41:19;100781.66;;;28.16;37.52
48244;BME280;34053;51.088;6.572;2023-06-10T12:44:10;100788.75;;;28.17;35.22
48244;BME280;34053;51.088;6.572;2023-06-10T12:47:10;100781.34;;;28.19;35.48
48244;BME280;34053;51.088;6.572;2023-06-10T12:50:03;100776.94;;;28.18;36.30
48244;BME280;34053;51.088;6.572;2023-06-10T12:52:54;100785.03;;;28.18;35.89
48244;BME280;34053;51.088;6.572;2023-06-10T12:55:45;100781.66;;;28.16;35.22
48244;BME280;34053;51.088;6.572;2023-06-10T12:58:37;100786.22;;;28.16;36.12
48244;BME280;34053;51.088;6.572;2023-06-10T13:01:27;100778.25;;;28.14;36.48
48244;BME280;34053;51.088;6.572;2023-06-10T13:04:20;100782.28;;;28.10;34.41
48244;BME280;34053;51.088;6.572;2023-06-10T13:07:12;100777.78;;;28.19;36.62
48244;BME280;34053;51.088;6.572;2023-06-10T13:10:03;100773.00;;;28.31;37.24
48244;BME280;34053;51.088;6.572;2023-06-10T13:12:54;100776.63;;;28.66;36.32
48244;BME280;34053;51.088;6.572;2023-06-10T13:15:45;100770.16;;;28.58;37.54
48244;BME280;34053;51.088;6.572;2023-06-10T13:18:35;100768.28;;;28.77;35.24
48244;BME280;34053;51.088;6.572;2023-06-10T13:21:28;100762.84;;;29.03;36.17
48244;BME280;34053;51.088;6.572;2023-06-10T13:24:19;100761.69;;;29.14;35.32
48244;BME280;34053;51.088;6.572;2023-06-10T13:27:10;100753.66;;;29.31;35.33
48244;BME280;34053;51.088;6.572;2023-06-10T13:30:01;100764.91;;;29.18;34.65
48244;BME280;34053;51.088;6.572;2023-06-10T13:32:52;100758.22;;;29.30;33.64
48244;BME280;34053;51.088;6.572;2023-06-10T13:35:43;100753.38;;;29.34;34.67
48244;BME280;34053;51.088;6.572;2023-06-10T13:38:33;100743.59;;;29.41;34.66
48244;BME280;34053;51.088;6.572;2023-06-10T13:41:24;100741.91;;;29.40;33.90
48244;BME280;34053;51.088;6.572;2023-06-10T13:44:15;100745.81;;;29.46;33.77
48244;BME280;34053;51.088;6.572;2023-06-10T13:47:06;100740.75;;;29.59;34.31
48244;BME280;34053;51.088;6.572;2023-06-10T13:49:57;100720.66;;;29.54;33.12
48244;BME280;34053;51.088;6.572;2023-06-10T13:52:49;100719.31;;;29.82;32.54
48244;BME280;34053;51.088;6.572;2023-06-10T13:55:39;100726.28;;;29.93;31.90
48244;BME280;34053;51.088;6.572;2023-06-10T13:58:30;100728.84;;;29.95;31.25
48244;BME280;34053;51.088;6.572;2023-06-10T14:01:21;100730.69;;;29.94;31.55
48244;BME280;34053;51.088;6.572;2023-06-10T14:04:12;100725.28;;;30.11;32.43
48244;BME280;34053;51.088;6.572;2023-06-10T14:07:04;100715.63;;;30.25;32.35
48244;BME280;34053;51.088;6.572;2023-06-10T14:09:54;100725.06;;;30.29;32.23
48244;BME280;34053;51.088;6.572;2023-06-10T14:12:46;100716.31;;;30.27;30.79
48244;BME280;34053;51.088;6.572;2023-06-10T14:15:37;100729.81;;;30.52;29.54
48244;BME280;34053;51.088;6.572;2023-06-10T14:18:28;100724.41;;;30.43;29.39
48244;BME280;34053;51.088;6.572;2023-06-10T14:21:19;100711.19;;;30.57;30.71
48244;BME280;34053;51.088;6.572;2023-06-10T14:24:10;100709.44;;;30.72;30.15
48244;BME280;34053;51.088;6.572;2023-06-10T14:27:00;100715.72;;;30.73;28.51
48244;BME280;34053;51.088;6.572;2023-06-10T14:29:51;100706.03;;;30.78;29.10
48244;BME280;34053;51.088;6.572;2023-06-10T14:32:42;100714.81;;;30.89;29.23
48244;BME280;34053;51.088;6.572;2023-06-10T14:35:33;100711.00;;;31.06;29.75
48244;BME280;34053;51.088;6.572;2023-06-10T14:38:24;100711.19;;;31.13;29.71
48244;BME280;34053;51.088;6.572;2023-06-10T14:41:14;100716.97;;;30.93;30.52
48244;BME280;34053;51.088;6.572;2023-06-10T14:44:05;100714.16;;;31.27;31.27
48244;BME280;34053;51.088;6.572;2023-06-10T14:46:56;100721.41;;;31.34;30.97
48244;BME280;34053;51.088;6.572;2023-06-10T14:49:47;100711.56;;;31.33;29.25
48244;BME280;34053;51.088;6.572;2023-06-10T14:52:38;100718.19;;;31.54;30.33
48244;BME280;34053;51.088;6.572;2023-06-10T14:55:29;100702.66;;;31.48;30.87
48244;BME280;34053;51.088;6.572;2023-06-10T14:58:20;100701.38;;;31.04;30.56
48244;BME280;34053;51.088;6.572;2023-06-10T15:01:10;100709.78;;;31.09;31.29
48244;BME280;34053;51.088;6.572;2023-06-10T15:04:01;100700.28;;;31.21;31.21
48244;BME280;34053;51.088;6.572;2023-06-10T15:06:52;100704.91;;;31.04;30.70
48244;BME280;34053;51.088;6.572;2023-06-10T15:09:43;100704.91;;;31.13;31.51